sensor_id;sensor_type;location;lat;lon;timestamp;temperature;humidity
19044;DHT22;9654;52.302;8.120;2023-06-14T00:01:20;17.00;93.50
19044;DHT22;9654;52.302;8.120;2023-06-14T00:03:47;16.90;93.70
19044;DHT22;9654;52.302;8.120;2023-06-14T00:06:14;16.90;94.00
19044;DHT22;9654;52.302;8.120;2023-06-14T00:08:41;16.80;94.20
19044;DHT22;9654;52.302;8.120;2023-06-14T00:11:09;16.80;94.40
19044;DHT22;9654;52.302;8.120;2023-06-14T00:13:36;16.70;94.70
19044;DHT22;9654;52.302;8.120;2023-06-14T00:16:03;16.70;95.00
19044;DHT22;9654;52.302;8.120;2023-06-14T00:18:30;16.70;95.30
19044;DHT22;9654;52.302;8.120;2023-06-14T00:20:58;16.60;95.60
19044;DHT22;9654;52.302;8.120;2023-06-14T00:23:24;16.50;95.90
19044;DHT22;9654;52.302;8.120;2023-06-14T00:25:51;16.50;96.30
19044;DHT22;9654;52.302;8.120;2023-06-14T00:28:19;16.50;96.50
19044;DHT22;9654;52.302;8.120;2023-06-14T00:30:46;16.50;96.80
19044;DHT22;9654;52.302;8.120;2023-06-14T00:33:13;16.50;97.00
19044;DHT22;9654;52.302;8.120;2023-06-14T00:35:40;16.40;97.30
19044;DHT22;9654;52.302;8.120;2023-06-14T00:38:06;16.40;97.80
19044;DHT22;9654;52.302;8.120;2023-06-14T00:40:33;16.30;98.20
19044;DHT22;9654;52.302;8.120;2023-06-14T00:43:00;16.30;98.40
19044;DHT22;9654;52.302;8.120;2023-06-14T00:45:28;16.30;98.70
19044;DHT22;9654;52.302;8.120;2023-06-14T00:47:57;16.30;99.10
19044;DHT22;9654;52.302;8.120;2023-06-14T00:50:24;16.20;99.40
19044;DHT22;9654;52.302;8.120;2023-06-14T00:52:51;16.20;99.80
19044;DHT22;9654;52.302;8.120;2023-06-14T00:55:18;16.10;99.90
19044;DHT22;9654;52.302;8.120;2023-06-14T00:57:45;16.10;99.90
19044;DHT22;9654;52.302;8.120;2023-06-14T01:00:13;16.00;99.90
19044;DHT22;9654;52.302;8.120;2023-06-14T01:02:41;16.00;99.90
19044;DHT22;9654;52.302;8.120;2023-06-14T01:05:09;16.00;99.90
19044;DHT22;9654;52.302;8.120;2023-06-14T01:07:45;16.00;99.90
19044;DHT22;9654;52.302;8.120;2023-06-14T01:10:25;15.90;99.90
19044;DHT22;9654;52.302;8.120;2023-06-14T01:12:57;15.90;99.90
19044;DHT22;9654;52.302;8.120;2023-06-14T01:15:26;15.80;99.90
19044;DHT22;9654;52.302;8.120;2023-06-14T01:17:55;15.80;99.90
19044;DHT22;9654;52.302;8.120;2023-06-14T01:20:29;15.70;99.90
19044;DHT22;9654;52.302;8.120;2023-06-14T01:22:57;15.70;99.90
19044;DHT22;9654;52.302;8.120;2023-06-14T01:25:24;15.70;99.90
19044;DHT22;9654;52.302;8.120;2023-06-14T01:27:55;15.70;99.90
19044;DHT22;9654;52.302;8.120;2023-06-14T01:30:24;15.60;99.90
19044;DHT22;9654;52.302;8.120;2023-06-14T01:32:52;15.60;99.90
19044;DHT22;9654;52.302;8.120;2023-06-14T01:35:20;15.60;99.90
19044;DHT22;9654;52.302;8.120;2023-06-14T01:37:48;15.50;99.90
19044;DHT22;9654;52.302;8.120;2023-06-14T01:40:18;15.50;99.90
19044;DHT22;9654;52.302;8.120;2023-06-14T01:42:46;15.50;99.90
19044;DHT22;9654;52.302;8.120;2023-06-14T01:45:14;15.40;99.90
19044;DHT22;9654;52.302;8.120;2023-06-14T01:47:42;15.40;99.90
19044;DHT22;9654;52.302;8.120;2023-06-14T01:50:10;15.30;99.90
19044;DHT22;9654;52.302;8.120;2023-06-14T01:52:37;15.30;99.90
19044;DHT22;9654;52.302;8.120;2023-06-14T01:55:05;15.20;99.90
19044;DHT22;9654;52.302;8.120;2023-06-14T01:57:33;15.20;99.90
19044;DHT22;9654;52.302;8.120;2023-06-14T02:00:00;15.10;99.90
19044;DHT22;9654;52.302;8.120;2023-06-14T02:02:29;15.10;99.90
19044;DHT22;9654;52.302;8.120;2023-06-14T02:04:56;15.10;99.90
19044;DHT22;9654;52.302;8.120;2023-06-14T02:07:23;15.10;99.90
19044;DHT22;9654;52.302;8.120;2023-06-14T02:09:50;15.10;99.90
19044;DHT22;9654;52.302;8.120;2023-06-14T02:12:16;15.10;99.90
19044;DHT22;9654;52.302;8.120;2023-06-14T02:14:45;15.00;99.90
19044;DHT22;9654;52.302;8.120;2023-06-14T02:17:11;14.90;99.90
19044;DHT22;9654;52.302;8.120;2023-06-14T02:19:38;14.90;99.90
19044;DHT22;9654;52.302;8.120;2023-06-14T02:22:06;14.80;99.90
19044;DHT22;9654;52.302;8.120;2023-06-14T02:24:33;14.80;99.90
19044;DHT22;9654;52.302;8.120;2023-06-14T02:27:01;14.70;99.90
19044;DHT22;9654;52.302;8.120;2023-06-14T02:29:28;14.70;99.90
19044;DHT22;9654;52.302;8.120;2023-06-14T02:31:56;14.70;99.90
19044;DHT22;9654;52.302;8.120;2023-06-14T02:34:22;14.60;99.90
19044;DHT22;9654;52.302;8.120;2023-06-14T02:36:49;14.60;99.90
19044;DHT22;9654;52.302;8.120;2023-06-14T02:39:18;14.50;99.90
19044;DHT22;9654;52.302;8.120;2023-06-14T02:41:46;14.50;99.90
19044;DHT22;9654;52.302;8.120;2023-06-14T02:44:13;14.50;99.90
19044;DHT22;9654;52.302;8.120;2023-06-14T02:46:40;14.40;99.90
19044;DHT22;9654;52.302;8.120;2023-06-14T02:49:10;14.40;99.90
19044;DHT22;9654;52.302;8.120;2023-06-14T02:51:37;14.40;99.90
19044;DHT22;9654;52.302;8.120;2023-06-14T02:54:04;14.30;99.90
19044;DHT22;9654;52.302;8.120;2023-06-14T02:56:30;14.30;99.90
19044;DHT22;9654;52.302;8.120;2023-06-14T02:58:57;14.30;99.90
19044;DHT22;9654;52.302;8.120;2023-06-14T03:01:26;14.20;99.90
19044;DHT22;9654;52.302;8.120;2023-06-14T03:03:59;14.20;99.90
19044;DHT22;9654;52.302;8.120;2023-06-14T03:06:28;14.20;99.90
19044;DHT22;9654;52.302;8.120;2023-06-14T03:08:55;14.10;99.90
19044;DHT22;9654;52.302;8.120;2023-06-14T03:11:24;14.10;99.90
19044;DHT22;9654;52.302;8.120;2023-06-14T03:13:51;14.00;99.90
19044;DHT22;9654;52.302;8.120;2023-06-14T03:16:18;14.00;99.90
19044;DHT22;9654;52.302;8.120;2023-06-14T03:18:48;14.00;99.90
19044;DHT22;9654;52.302;8.120;2023-06-14T03:21:15;13.90;99.90
19044;DHT22;9654;52.302;8.120;2023-06-14T03:23:43;13.90;99.90
19044;DHT22;9654;52.302;8.120;2023-06-14T03:26:10;13.90;99.90
19044;DHT22;9654;52.302;8.120;2023-06-14T03:28:38;13.90;99.90
19044;DHT22;9654;52.302;8.120;2023-06-14T03:31:05;14.00;99.90
19044;DHT22;9654;52.302;8.120;2023-06-14T03:33:32;14.00;99.90
19044;DHT22;9654;52.302;8.120;2023-06-14T03:35:59;14.00;99.90
19044;DHT22;9654;52.302;8.120;2023-06-14T03:38:25;14.00;99.90
19044;DHT22;9654;52.302;8.120;2023-06-14T03:40:53;14.10;99.90
19044;DHT22;9654;52.302;8.120;2023-06-14T03:43:20;14.00;99.90
19044;DHT22;9654;52.302;8.120;2023-06-14T03:45:47;14.00;99.90
19044;DHT22;9654;52.302;8.120;2023-06-14T03:48:14;14.00;99.90
19044;DHT22;9654;52.302;8.120;2023-06-14T03:50:41;14.00;99.90
19044;DHT22;9654;52.302;8.120;2023-06-14T03:53:08;14.00;99.90
19044;DHT22;9654;52.302;8.120;2023-06-14T03:55:35;14.00;99.90
19044;DHT22;9654;52.302;8.120;2023-06-14T03:58:04;14.00;99.90
19044;DHT22;9654;52.302;8.120;2023-06-14T04:00:31;14.00;99.90
19044;DHT22;9654;52.302;8.120;2023-06-14T04:02:58;14.00;99.90
19044;DHT22;9654;52.302;8.120;2023-06-14T04:05:25;14.00;99.90
19044;DHT22;9654;52.302;8.120;2023-06-14T04:07:52;14.00;99.90
19044;DHT22;9654;52.302;8.120;2023-06-14T04:10:21;14.10;99.90
19044;DHT22;9654;52.302;8.120;2023-06-14T04:12:48;14.10;99.90
19044;DHT22;9654;52.302;8.120;2023-06-14T04:15:17;14.20;99.90
19044;DHT22;9654;52.302;8.120;2023-06-14T04:17:44;14.20;99.90
19044;DHT22;9654;52.302;8.120;2023-06-14T04:20:11;14.20;99.90
19044;DHT22;9654;52.302;8.120;2023-06-14T04:22:37;14.20;99.90
19044;DHT22;9654;52.302;8.120;2023-06-14T04:25:04;14.20;99.90
19044;DHT22;9654;52.302;8.120;2023-06-14T04:27:32;14.30;99.90
19044;DHT22;9654;52.302;8.120;2023-06-14T04:30:01;14.30;99.90
19044;DHT22;9654;52.302;8.120;2023-06-14T04:32:29;14.30;99.90
19044;DHT22;9654;52.302;8.120;2023-06-14T04:34:59;14.30;99.90
19044;DHT22;9654;52.302;8.120;2023-06-14T04:37:27;14.40;99.90
19044;DHT22;9654;52.302;8.120;2023-06-14T04:39:54;14.40;99.90
19044;DHT22;9654;52.302;8.120;2023-06-14T04:42:22;14.50;99.90
19044;DHT22;9654;52.302;8.120;2023-06-14T04:44:51;14.50;99.90
19044;DHT22;9654;52.302;8.120;2023-06-14T04:47:21;14.60;99.90
19044;DHT22;9654;52.302;8.120;2023-06-14T04:49:51;14.60;99.90
19044;DHT22;9654;52.302;8.120;2023-06-14T04:52:19;14.60;99.90
19044;DHT22;9654;52.302;8.120;2023-06-14T04:54:46;14.60;99.90
19044;DHT22;9654;52.302;8.120;2023-06-14T04:57:13;14.70;99.90
19044;DHT22;9654;52.302;8.120;2023-06-14T04:59:42;14.80;99.90
19044;DHT22;9654;52.302;8.120;2023-06-14T05:02:09;14.80;99.90
19044;DHT22;9654;52.302;8.120;2023-06-14T05:04:37;14.90;99.90
19044;DHT22;9654;52.302;8.120;2023-06-14T05:07:06;15.00;99.90
19044;DHT22;9654;52.302;8.120;2023-06-14T05:09:33;15.10;99.90
19044;DHT22;9654;52.302;8.120;2023-06-14T05:12:00;15.10;99.90
19044;DHT22;9654;52.302;8.120;2023-06-14T05:14:27;15.20;99.90
19044;DHT22;9654;52.302;8.120;2023-06-14T05:16:53;15.20;99.90
19044;DHT22;9654;52.302;8.120;2023-06-14T05:19:20;15.30;99.90
19044;DHT22;9654;52.302;8.120;2023-06-14T05:21:47;15.40;99.90
19044;DHT22;9654;52.302;8.120;2023-06-14T05:24:15;15.50;99.90
19044;DHT22;9654;52.302;8.120;2023-06-14T05:26:43;15.50;99.90
19044;DHT22;9654;52.302;8.120;2023-06-14T05:29:10;15.50;99.90
19044;DHT22;9654;52.302;8.120;2023-06-14T05:31:37;15.60;99.90
19044;DHT22;9654;52.302;8.120;2023-06-14T05:34:04;15.60;99.90
19044;DHT22;9654;52.302;8.120;2023-06-14T05:36:30;15.70;99.90
19044;DHT22;9654;52.302;8.120;2023-06-14T05:38:57;15.70;99.90
19044;DHT22;9654;52.302;8.120;2023-06-14T05:41:26;15.80;99.90
19044;DHT22;9654;52.302;8.120;2023-06-14T05:43:54;15.80;99.90
19044;DHT22;9654;52.302;8.120;2023-06-14T05:46:21;15.90;99.90
19044;DHT22;9654;52.302;8.120;2023-06-14T05:48:51;15.90;99.90
19044;DHT22;9654;52.302;8.120;2023-06-14T05:51:17;16.00;99.90
19044;DHT22;9654;52.302;8.120;2023-06-14T05:53:45;16.00;99.90
19044;DHT22;9654;52.302;8.120;2023-06-14T05:56:12;16.10;99.90
19044;DHT22;9654;52.302;8.120;2023-06-14T05:58:41;16.20;99.90
19044;DHT22;9654;52.302;8.120;2023-06-14T06:01:07;16.20;99.90
19044;DHT22;9654;52.302;8.120;2023-06-14T06:03:34;16.30;99.90
19044;DHT22;9654;52.302;8.120;2023-06-14T06:06:01;16.30;99.90
19044;DHT22;9654;52.302;8.120;2023-06-14T06:08:28;16.40;99.90
19044;DHT22;9654;52.302;8.120;2023-06-14T06:10:55;16.60;99.90
19044;DHT22;9654;52.302;8.120;2023-06-14T06:13:22;16.70;99.90
19044;DHT22;9654;52.302;8.120;2023-06-14T06:15:50;16.80;99.90
19044;DHT22;9654;52.302;8.120;2023-06-14T06:18:17;16.90;99.90
19044;DHT22;9654;52.302;8.120;2023-06-14T06:20:43;17.00;99.90
19044;DHT22;9654;52.302;8.120;2023-06-14T06:23:12;17.10;99.90
19044;DHT22;9654;52.302;8.120;2023-06-14T06:25:40;17.10;99.90
19044;DHT22;9654;52.302;8.120;2023-06-14T06:28:07;17.20;99.90
19044;DHT22;9654;52.302;8.120;2023-06-14T06:30:33;17.30;99.90
19044;DHT22;9654;52.302;8.120;2023-06-14T06:33:03;17.30;99.90
19044;DHT22;9654;52.302;8.120;2023-06-14T06:35:29;17.40;99.90
19044;DHT22;9654;52.302;8.120;2023-06-14T06:37:58;17.40;99.90
19044;DHT22;9654;52.302;8.120;2023-06-14T06:40:25;17.40;99.90
19044;DHT22;9654;52.302;8.120;2023-06-14T06:42:52;17.60;99.90
19044;DHT22;9654;52.302;8.120;2023-06-14T06:45:19;17.60;99.90
19044;DHT22;9654;52.302;8.120;2023-06-14T06:47:45;17.70;99.90
19044;DHT22;9654;52.302;8.120;2023-06-14T06:50:13;17.70;99.90
19044;DHT22;9654;52.302;8.120;2023-06-14T06:52:41;17.90;99.90
19044;DHT22;9654;52.302;8.120;2023-06-14T06:55:08;18.00;99.90
19044;DHT22;9654;52.302;8.120;2023-06-14T06:57:36;18.10;99.90
19044;DHT22;9654;52.302;8.120;2023-06-14T07:00:04;18.20;99.90
19044;DHT22;9654;52.302;8.120;2023-06-14T07:02:33;18.40;99.90
19044;DHT22;9654;52.302;8.120;2023-06-14T07:05:00;18.50;99.90
19044;DHT22;9654;52.302;8.120;2023-06-14T07:07:28;18.40;99.90
19044;DHT22;9654;52.302;8.120;2023-06-14T07:09:55;18.50;99.90
19044;DHT22;9654;52.302;8.120;2023-06-14T07:12:22;18.50;99.90
19044;DHT22;9654;52.302;8.120;2023-06-14T07:14:49;18.50;99.90
19044;DHT22;9654;52.302;8.120;2023-06-14T07:17:16;18.50;99.90
19044;DHT22;9654;52.302;8.120;2023-06-14T07:19:43;18.70;99.90
19044;DHT22;9654;52.302;8.120;2023-06-14T07:22:09;18.90;99.90
19044;DHT22;9654;52.302;8.120;2023-06-14T07:24:37;18.90;99.90
19044;DHT22;9654;52.302;8.120;2023-06-14T07:27:06;18.80;99.90
19044;DHT22;9654;52.302;8.120;2023-06-14T07:29:33;18.60;99.90
19044;DHT22;9654;52.302;8.120;2023-06-14T07:32:00;18.80;99.90
19044;DHT22;9654;52.302;8.120;2023-06-14T07:34:26;18.80;99.90
19044;DHT22;9654;52.302;8.120;2023-06-14T07:36:53;19.00;99.90
19044;DHT22;9654;52.302;8.120;2023-06-14T07:39:21;18.90;99.90
19044;DHT22;9654;52.302;8.120;2023-06-14T07:41:49;18.80;99.90
19044;DHT22;9654;52.302;8.120;2023-06-14T07:44:16;18.70;99.90
19044;DHT22;9654;52.302;8.120;2023-06-14T07:46:42;18.60;99.90
19044;DHT22;9654;52.302;8.120;2023-06-14T07:49:11;18.60;99.90
19044;DHT22;9654;52.302;8.120;2023-06-14T07:51:38;18.70;99.90
19044;DHT22;9654;52.302;8.120;2023-06-14T07:54:05;18.80;99.90
19044;DHT22;9654;52.302;8.120;2023-06-14T07:56:34;19.00;99.90
19044;DHT22;9654;52.302;8.120;2023-06-14T07:59:02;19.20;99.90
19044;DHT22;9654;52.302;8.120;2023-06-14T08:01:29;19.30;99.90
19044;DHT22;9654;52.302;8.120;2023-06-14T08:03:56;19.20;99.90
19044;DHT22;9654;52.302;8.120;2023-06-14T08:06:22;19.50;99.90
19044;DHT22;9654;52.302;8.120;2023-06-14T08:08:49;19.60;99.90
19044;DHT22;9654;52.302;8.120;2023-06-14T08:11:16;19.40;99.90
19044;DHT22;9654;52.302;8.120;2023-06-14T08:13:42;19.30;99.90
19044;DHT22;9654;52.302;8.120;2023-06-14T08:16:11;19.20;99.90
19044;DHT22;9654;52.302;8.120;2023-06-14T08:18:37;19.40;99.90
19044;DHT22;9654;52.302;8.120;2023-06-14T08:21:04;19.40;99.90
19044;DHT22;9654;52.302;8.120;2023-06-14T08:23:31;19.50;99.90
19044;DHT22;9654;52.302;8.120;2023-06-14T08:25:57;19.80;99.90
19044;DHT22;9654;52.302;8.120;2023-06-14T08:28:26;19.70;99.90
19044;DHT22;9654;52.302;8.120;2023-06-14T08:30:53;19.60;99.90
19044;DHT22;9654;52.302;8.120;2023-06-14T08:33:22;19.80;99.90
19044;DHT22;9654;52.302;8.120;2023-06-14T08:35:49;19.90;99.90
19044;DHT22;9654;52.302;8.120;2023-06-14T08:38:15;19.90;99.90
19044;DHT22;9654;52.302;8.120;2023-06-14T08:40:42;19.70;99.90
19044;DHT22;9654;52.302;8.120;2023-06-14T08:43:09;19.50;99.90
19044;DHT22;9654;52.302;8.120;2023-06-14T08:45:36;19.50;99.90
19044;DHT22;9654;52.302;8.120;2023-06-14T08:48:03;19.80;99.90
19044;DHT22;9654;52.302;8.120;2023-06-14T08:50:32;19.70;99.90
19044;DHT22;9654;52.302;8.120;2023-06-14T08:53:00;19.70;99.90
19044;DHT22;9654;52.302;8.120;2023-06-14T08:55:28;19.90;99.90
19044;DHT22;9654;52.302;8.120;2023-06-14T08:57:56;20.00;99.90
19044;DHT22;9654;52.302;8.120;2023-06-14T09:00:24;20.20;99.90
19044;DHT22;9654;52.302;8.120;2023-06-14T09:02:52;20.20;99.90
19044;DHT22;9654;52.302;8.120;2023-06-14T09:05:23;20.40;99.90
19044;DHT22;9654;52.302;8.120;2023-06-14T09:07:51;20.60;99.90
19044;DHT22;9654;52.302;8.120;2023-06-14T09:10:21;20.70;99.90
19044;DHT22;9654;52.302;8.120;2023-06-14T09:12:48;20.80;99.90
19044;DHT22;9654;52.302;8.120;2023-06-14T09:15:15;20.60;99.90
19044;DHT22;9654;52.302;8.120;2023-06-14T09:17:42;20.70;99.90
19044;DHT22;9654;52.302;8.120;2023-06-14T09:20:10;20.70;99.90
19044;DHT22;9654;52.302;8.120;2023-06-14T09:22:39;20.70;99.90
19044;DHT22;9654;52.302;8.120;2023-06-14T09:25:09;20.80;99.90
19044;DHT22;9654;52.302;8.120;2023-06-14T09:27:36;20.70;99.90
19044;DHT22;9654;52.302;8.120;2023-06-14T09:30:06;20.50;99.90
19044;DHT22;9654;52.302;8.120;2023-06-14T09:32:36;20.40;99.90
19044;DHT22;9654;52.302;8.120;2023-06-14T09:35:05;20.50;99.90
19044;DHT22;9654;52.302;8.120;2023-06-14T09:37:33;20.80;99.90
19044;DHT22;9654;52.302;8.120;2023-06-14T09:40:00;21.10;99.90
19044;DHT22;9654;52.302;8.120;2023-06-14T09:42:28;20.90;99.90
19044;DHT22;9654;52.302;8.120;2023-06-14T09:44:56;20.80;99.90
19044;DHT22;9654;52.302;8.120;2023-06-14T09:47:24;20.70;99.90
19044;DHT22;9654;52.302;8.120;2023-06-14T09:49:51;21.00;99.90
19044;DHT22;9654;52.302;8.120;2023-06-14T09:52:21;21.40;99.90
19044;DHT22;9654;52.302;8.120;2023-06-14T09:54:48;21.80;99.90
19044;DHT22;9654;52.302;8.120;2023-06-14T09:57:16;22.00;99.90
19044;DHT22;9654;52.302;8.120;2023-06-14T09:59:46;22.00;99.90
19044;DHT22;9654;52.302;8.120;2023-06-14T10:02:22;21.90;99.90
19044;DHT22;9654;52.302;8.120;2023-06-14T10:04:56;21.60;99.90
19044;DHT22;9654;52.302;8.120;2023-06-14T10:07:26;21.40;99.90
19044;DHT22;9654;52.302;8.120;2023-06-14T10:09:56;21.40;99.90
19044;DHT22;9654;52.302;8.120;2023-06-14T10:12:23;21.80;99.90
19044;DHT22;9654;52.302;8.120;2023-06-14T10:14:52;21.60;99.90
19044;DHT22;9654;52.302;8.120;2023-06-14T10:17:24;21.60;99.90
19044;DHT22;9654;52.302;8.120;2023-06-14T10:19:56;21.40;99.90
19044;DHT22;9654;52.302;8.120;2023-06-14T10:22:30;21.70;99.90
19044;DHT22;9654;52.302;8.120;2023-06-14T10:24:59;22.00;99.90
19044;DHT22;9654;52.302;8.120;2023-06-14T10:27:27;22.20;99.90
19044;DHT22;9654;52.302;8.120;2023-06-14T10:30:06;22.10;99.90
19044;DHT22;9654;52.302;8.120;2023-06-14T10:32:33;22.00;99.90
19044;DHT22;9654;52.302;8.120;2023-06-14T10:35:01;22.10;99.90
19044;DHT22;9654;52.302;8.120;2023-06-14T10:37:30;22.00;99.90
19044;DHT22;9654;52.302;8.120;2023-06-14T10:39:57;22.00;99.90
19044;DHT22;9654;52.302;8.120;2023-06-14T10:42:28;22.40;99.90
19044;DHT22;9654;52.302;8.120;2023-06-14T10:44:58;22.50;99.90
19044;DHT22;9654;52.302;8.120;2023-06-14T10:47:30;22.50;99.90
19044;DHT22;9654;52.302;8.120;2023-06-14T10:50:03;22.50;99.90
19044;DHT22;9654;52.302;8.120;2023-06-14T10:52:33;22.40;99.90
19044;DHT22;9654;52.302;8.120;2023-06-14T10:55:09;22.60;99.90
19044;DHT22;9654;52.302;8.120;2023-06-14T10:57:37;22.90;99.90
19044;DHT22;9654;52.302;8.120;2023-06-14T11:00:05;23.10;99.90
19044;DHT22;9654;52.302;8.120;2023-06-14T11:05:48;23.30;99.90
19044;DHT22;9654;52.302;8.120;2023-06-14T11:08:35;22.90;99.90
19044;DHT22;9654;52.302;8.120;2023-06-14T11:11:06;22.70;99.90
19044;DHT22;9654;52.302;8.120;2023-06-14T11:13:34;23.10;99.80
19044;DHT22;9654;52.302;8.120;2023-06-14T11:16:10;23.40;98.70
19044;DHT22;9654;52.302;8.120;2023-06-14T11:18:39;23.40;98.40
19044;DHT22;9654;52.302;8.120;2023-06-14T11:21:06;23.40;99.00
19044;DHT22;9654;52.302;8.120;2023-06-14T11:23:34;23.30;98.90
19044;DHT22;9654;52.302;8.120;2023-06-14T11:26:01;23.70;99.50
19044;DHT22;9654;52.302;8.120;2023-06-14T11:28:36;24.10;99.20
19044;DHT22;9654;52.302;8.120;2023-06-14T11:31:04;24.40;97.60
19044;DHT22;9654;52.302;8.120;2023-06-14T11:33:31;24.30;96.90
19044;DHT22;9654;52.302;8.120;2023-06-14T11:36:02;24.30;97.60
19044;DHT22;9654;52.302;8.120;2023-06-14T11:38:28;24.30;96.70
19044;DHT22;9654;52.302;8.120;2023-06-14T11:40:58;24.30;97.00
19044;DHT22;9654;52.302;8.120;2023-06-14T11:43:25;24.30;96.20
19044;DHT22;9654;52.302;8.120;2023-06-14T11:45:53;24.50;96.70
19044;DHT22;9654;52.302;8.120;2023-06-14T11:48:19;24.70;96.20
19044;DHT22;9654;52.302;8.120;2023-06-14T11:50:49;24.70;96.00
19044;DHT22;9654;52.302;8.120;2023-06-14T11:53:18;24.90;96.00
19044;DHT22;9654;52.302;8.120;2023-06-14T11:55:45;24.90;95.50
19044;DHT22;9654;52.302;8.120;2023-06-14T11:58:13;24.80;95.20
19044;DHT22;9654;52.302;8.120;2023-06-14T12:00:39;24.80;95.60
19044;DHT22;9654;52.302;8.120;2023-06-14T12:03:07;25.20;95.90
19044;DHT22;9654;52.302;8.120;2023-06-14T12:05:34;25.20;95.80
19044;DHT22;9654;52.302;8.120;2023-06-14T12:08:02;25.30;95.20
19044;DHT22;9654;52.302;8.120;2023-06-14T12:10:41;25.40;94.70
19044;DHT22;9654;52.302;8.120;2023-06-14T12:13:09;24.80;94.40
19044;DHT22;9654;52.302;8.120;2023-06-14T12:15:36;24.50;94.70
19044;DHT22;9654;52.302;8.120;2023-06-14T12:18:05;24.30;94.40
19044;DHT22;9654;52.302;8.120;2023-06-14T12:20:33;24.10;95.20
19044;DHT22;9654;52.302;8.120;2023-06-14T12:23:03;24.40;95.40
19044;DHT22;9654;52.302;8.120;2023-06-14T12:25:31;24.90;95.70
19044;DHT22;9654;52.302;8.120;2023-06-14T12:28:04;25.30;95.50
19044;DHT22;9654;52.302;8.120;2023-06-14T12:30:31;25.50;94.70
19044;DHT22;9654;52.302;8.120;2023-06-14T12:32:58;25.40;94.40
19044;DHT22;9654;52.302;8.120;2023-06-14T12:35:26;25.40;95.20
19044;DHT22;9654;52.302;8.120;2023-06-14T12:37:52;25.60;94.00
19044;DHT22;9654;52.302;8.120;2023-06-14T12:40:19;25.20;93.60
19044;DHT22;9654;52.302;8.120;2023-06-14T12:42:46;25.40;94.20
19044;DHT22;9654;52.302;8.120;2023-06-14T12:45:15;25.50;94.10
19044;DHT22;9654;52.302;8.120;2023-06-14T12:47:41;25.70;94.30
19044;DHT22;9654;52.302;8.120;2023-06-14T12:50:08;25.90;94.30
19044;DHT22;9654;52.302;8.120;2023-06-14T12:52:35;26.20;93.60
19044;DHT22;9654;52.302;8.120;2023-06-14T12:55:03;26.00;93.70
19044;DHT22;9654;52.302;8.120;2023-06-14T12:57:30;25.70;93.20
19044;DHT22;9654;52.302;8.120;2023-06-14T12:59:56;25.10;93.60
19044;DHT22;9654;52.302;8.120;2023-06-14T13:02:25;25.00;94.20
19044;DHT22;9654;52.302;8.120;2023-06-14T13:04:52;25.20;94.90
19044;DHT22;9654;52.302;8.120;2023-06-14T13:07:19;25.30;94.40
19044;DHT22;9654;52.302;8.120;2023-06-14T13:09:45;25.60;94.20
19044;DHT22;9654;52.302;8.120;2023-06-14T13:12:12;25.80;93.80
19044;DHT22;9654;52.302;8.120;2023-06-14T13:14:40;25.70;94.10
19044;DHT22;9654;52.302;8.120;2023-06-14T13:17:07;25.80;93.70
19044;DHT22;9654;52.302;8.120;2023-06-14T13:19:36;25.70;94.70
19044;DHT22;9654;52.302;8.120;2023-06-14T13:22:03;25.80;93.80
19044;DHT22;9654;52.302;8.120;2023-06-14T13:24:30;25.90;93.80
19044;DHT22;9654;52.302;8.120;2023-06-14T13:26:57;25.70;93.70
19044;DHT22;9654;52.302;8.120;2023-06-14T13:29:24;25.60;93.50
19044;DHT22;9654;52.302;8.120;2023-06-14T13:31:51;25.50;93.40
19044;DHT22;9654;52.302;8.120;2023-06-14T13:34:18;25.00;93.40
19044;DHT22;9654;52.302;8.120;2023-06-14T13:36:46;25.00;94.00
19044;DHT22;9654;52.302;8.120;2023-06-14T13:39:14;25.60;93.50
19044;DHT22;9654;52.302;8.120;2023-06-14T13:41:41;25.30;92.90
19044;DHT22;9654;52.302;8.120;2023-06-14T13:44:07;24.70;93.50
19044;DHT22;9654;52.302;8.120;2023-06-14T13:46:36;24.70;93.50
19044;DHT22;9654;52.302;8.120;2023-06-14T13:49:03;24.80;94.10
19044;DHT22;9654;52.302;8.120;2023-06-14T13:51:30;25.10;93.90
19044;DHT22;9654;52.302;8.120;2023-06-14T13:53:59;25.00;93.60
19044;DHT22;9654;52.302;8.120;2023-06-14T13:56:26;24.80;93.70
19044;DHT22;9654;52.302;8.120;2023-06-14T13:58:53;24.70;93.70
19044;DHT22;9654;52.302;8.120;2023-06-14T14:01:20;24.60;94.10
19044;DHT22;9654;52.302;8.120;2023-06-14T14:03:48;24.80;93.40
19044;DHT22;9654;52.302;8.120;2023-06-14T14:06:15;24.70;93.70
19044;DHT22;9654;52.302;8.120;2023-06-14T14:08:42;24.70;93.50
19044;DHT22;9654;52.302;8.120;2023-06-14T14:11:10;24.80;93.40
19044;DHT22;9654;52.302;8.120;2023-06-14T14:13:38;25.00;93.20
19044;DHT22;9654;52.302;8.120;2023-06-14T14:16:06;25.20;93.70
19044;DHT22;9654;52.302;8.120;2023-06-14T14:18:32;25.60;92.90
19044;DHT22;9654;52.302;8.120;2023-06-14T14:20:59;25.60;93.20
19044;DHT22;9654;52.302;8.120;2023-06-14T14:23:27;25.90;92.90
19044;DHT22;9654;52.302;8.120;2023-06-14T14:25:54;26.10;92.60
19044;DHT22;9654;52.302;8.120;2023-06-14T14:28:22;26.40;92.00
19044;DHT22;9654;52.302;8.120;2023-06-14T14:30:49;26.50;91.70
19044;DHT22;9654;52.302;8.120;2023-06-14T14:33:16;26.80;91.70
19044;DHT22;9654;52.302;8.120;2023-06-14T14:35:43;26.90;91.90
19044;DHT22;9654;52.302;8.120;2023-06-14T14:38:11;27.20;91.50
19044;DHT22;9654;52.302;8.120;2023-06-14T14:40:39;27.30;91.20
19044;DHT22;9654;52.302;8.120;2023-06-14T14:43:06;27.50;91.00
19044;DHT22;9654;52.302;8.120;2023-06-14T14:45:34;27.70;90.70
19044;DHT22;9654;52.302;8.120;2023-06-14T14:48:01;27.30;90.00
19044;DHT22;9654;52.302;8.120;2023-06-14T14:50:28;26.40;90.20
19044;DHT22;9654;52.302;8.120;2023-06-14T14:52:55;25.90;90.80
19044;DHT22;9654;52.302;8.120;2023-06-14T14:55:22;25.70;91.60
19044;DHT22;9654;52.302;8.120;2023-06-14T14:57:50;25.50;91.50
19044;DHT22;9654;52.302;8.120;2023-06-14T15:00:17;25.50;92.00
19044;DHT22;9654;52.302;8.120;2023-06-14T15:02:46;25.40;92.30
19044;DHT22;9654;52.302;8.120;2023-06-14T15:05:12;25.70;92.00
19044;DHT22;9654;52.302;8.120;2023-06-14T15:07:39;26.10;91.90
19044;DHT22;9654;52.302;8.120;2023-06-14T15:10:07;26.20;91.40
19044;DHT22;9654;52.302;8.120;2023-06-14T15:12:34;26.20;91.40
19044;DHT22;9654;52.302;8.120;2023-06-14T15:15:02;26.30;91.00
19044;DHT22;9654;52.302;8.120;2023-06-14T15:17:29;26.30;90.70
19044;DHT22;9654;52.302;8.120;2023-06-14T15:19:57;26.20;90.80
19044;DHT22;9654;52.302;8.120;2023-06-14T15:22:24;26.40;91.30
19044;DHT22;9654;52.302;8.120;2023-06-14T15:24:50;26.50;91.10
19044;DHT22;9654;52.302;8.120;2023-06-14T15:27:17;26.80;91.00
19044;DHT22;9654;52.302;8.120;2023-06-14T15:29:44;27.30;90.90
19044;DHT22;9654;52.302;8.120;2023-06-14T15:32:11;27.60;90.40
19044;DHT22;9654;52.302;8.120;2023-06-14T15:34:38;27.70;90.10
19044;DHT22;9654;52.302;8.120;2023-06-14T15:37:06;27.80;90.00
19044;DHT22;9654;52.302;8.120;2023-06-14T15:39:33;27.70;89.60
19044;DHT22;9654;52.302;8.120;2023-06-14T15:42:00;27.50;89.80
19044;DHT22;9654;52.302;8.120;2023-06-14T15:44:27;27.50;89.80
19044;DHT22;9654;52.302;8.120;2023-06-14T15:46:54;27.80;90.10
19044;DHT22;9654;52.302;8.120;2023-06-14T15:49:20;28.00;90.10
19044;DHT22;9654;52.302;8.120;2023-06-14T15:51:47;28.20;89.10